Time;durP1;ratioP1;P1;durP2;ratioP2;P2;SDS_P1;SDS_P2;PMS_P1;PMS_P2;Temp;Humidity;BMP_temperature;BMP_pressure;BME280_temperature;BME280_humidity;BME280_pressure;Samples;Min_cycle;Max_cycle;Signal;HPM_P1;HPM_P2
2021/05/05 00:01:28;;;;;;;;;;;8.10;52.20;;;;;;5053064;28;19968;-82
2021/05/05 00:03:54;;;;;;;;;;;8.10;52.20;;;;;;5036762;28;19914;-79
2021/05/05 00:06:19;;;;;;;;;;;8.10;52.20;;;;;;5057165;28;19960;-80
2021/05/05 00:08:45;;;;;;;;;;;8.10;51.90;;;;;;5055443;28;19932;-80
2021/05/05 00:11:10;;;;;;;;;;;8.10;51.50;;;;;;5048855;28;19915;-78
2021/05/05 00:13:36;;;;;;;;;;;8.10;50.60;;;;;;5052554;28;19905;-80
2021/05/05 00:16:02;;;;;;;;;;;8.10;50.70;;;;;;5055606;28;19967;-80
2021/05/05 00:18:27;;;;;;;;;;;8.20;50.80;;;;;;5040687;28;19931;-80
2021/05/05 00:20:53;;;;;;;;;;;8.20;49.60;;;;;;5055789;28;19997;-81
2021/05/05 00:23:19;;;;;;;;;;;8.20;50.20;;;;;;5054302;28;19924;-81
2021/05/05 00:25:45;;;;;;;;;;;8.20;49.30;;;;;;5036712;28;20251;-80
2021/05/05 00:28:10;;;;;;;;;;;8.20;50.70;;;;;;5036207;28;19905;-80
2021/05/05 00:30:36;;;;;;;;;;;8.20;50.10;;;;;;5038722;28;19936;-80
2021/05/05 00:33:01;;;;;;;;;;;8.10;50.10;;;;;;5036035;28;19910;-79
2021/05/05 00:35:27;;;;;;;;;;;8.10;49.90;;;;;;5033226;28;19955;-79
2021/05/05 00:37:52;;;;;;;;;;;8.00;50.40;;;;;;5033232;28;19917;-80
2021/05/05 00:40:18;;;;;;;;;;;7.90;49.20;;;;;;5032937;28;19917;-80
2021/05/05 00:42:44;;;;;;;;;;;7.80;51.00;;;;;;5035696;28;19917;-80
2021/05/05 00:45:10;;;;;;;;;;;7.70;52.30;;;;;;5033369;28;19905;-79
2021/05/05 00:47:36;;;;;;;;;;;7.60;52.60;;;;;;5051743;28;19927;-79
2021/05/05 00:50:02;;;;;;;;;;;7.50;53.80;;;;;;5053388;28;19905;-80
2021/05/05 00:52:28;;;;;;;;;;;7.40;54.80;;;;;;5054390;28;19905;-79
2021/05/05 00:54:54;;;;;;;;;;;7.40;55.10;;;;;;5045204;28;19927;-79
2021/05/05 00:57:19;;;;;;;;;;;7.20;56.50;;;;;;5048486;28;19909;-80
2021/05/05 00:59:45;;;;;;;;;;;7.30;55.60;;;;;;5034383;28;19905;-80
2021/05/05 01:02:11;;;;;;;;;;;7.20;55.80;;;;;;5037581;28;19921;-81
2021/05/05 01:04:37;;;;;;;;;;;7.20;56.20;;;;;;5054230;28;20000;-80
2021/05/05 01:07:02;;;;;;;;;;;7.20;56.10;;;;;;5035246;28;19916;-80
2021/05/05 01:09:28;;;;;;;;;;;7.20;56.70;;;;;;5053310;28;19959;-80
2021/05/05 01:11:54;;;;;;;;;;;7.10;56.50;;;;;;5034738;28;19908;-80
2021/05/05 01:14:20;;;;;;;;;;;7.00;58.40;;;;;;5026869;28;19936;-80
2021/05/05 01:16:45;;;;;;;;;;;7.00;58.80;;;;;;5008985;28;19909;-79
2021/05/05 01:19:11;;;;;;;;;;;7.00;58.40;;;;;;5007187;28;19905;-80
2021/05/05 01:21:36;;;;;;;;;;;7.00;58.70;;;;;;5024176;28;19909;-80
2021/05/05 01:24:02;;;;;;;;;;;7.00;60.30;;;;;;5025497;28;20306;-79
2021/05/05 01:26:28;;;;;;;;;;;7.10;59.70;;;;;;5026669;28;19948;-79
2021/05/05 01:28:57;;;;;;;;;;;7.20;57.30;;;;;;5034339;28;19932;-80
2021/05/05 01:31:23;;;;;;;;;;;7.30;56.90;;;;;;5032616;28;19905;-80
2021/05/05 01:33:48;;;;;;;;;;;7.50;55.20;;;;;;5049545;28;20035;-80
2021/05/05 01:36:15;;;;;;;;;;;7.50;55.40;;;;;;5029950;28;19916;-81
2021/05/05 01:38:40;;;;;;;;;;;7.50;55.50;;;;;;5021980;23;19926;-70
2021/05/05 01:41:06;;;;;;;;;;;7.50;55.70;;;;;;4994551;28;19968;-70
2021/05/05 01:43:32;;;;;;;;;;;7.70;53.50;;;;;;4994549;28;19913;-70
2021/05/05 01:45:57;;;;;;;;;;;7.70;53.60;;;;;;4994139;28;19952;-70
2021/05/05 01:48:22;;;;;;;;;;;7.70;55.10;;;;;;4993049;28;19905;-70
2021/05/05 01:50:48;;;;;;;;;;;7.80;52.70;;;;;;4993957;28;19906;-70
2021/05/05 01:53:17;;;;;;;;;;;7.90;51.70;;;;;;4993555;28;19980;-70
2021/05/05 01:55:46;;;;;;;;;;;7.80;52.80;;;;;;4994097;28;19957;-70
2021/05/05 01:58:11;;;;;;;;;;;7.70;54.00;;;;;;4993703;28;19974;-70
2021/05/05 02:00:37;;;;;;;;;;;7.70;55.30;;;;;;4993856;28;19984;-70
2021/05/05 02:03:03;;;;;;;;;;;7.60;54.40;;;;;;4993211;28;19905;-70
2021/05/05 02:05:28;;;;;;;;;;;7.50;54.80;;;;;;4993554;28;20273;-70
2021/05/05 02:07:54;;;;;;;;;;;7.40;55.30;;;;;;4993480;28;19910;-70
2021/05/05 02:10:20;;;;;;;;;;;7.30;55.90;;;;;;4993793;28;19912;-71
2021/05/05 02:12:45;;;;;;;;;;;7.30;56.10;;;;;;4993390;28;19960;-71
2021/05/05 02:15:12;;;;;;;;;;;7.20;57.40;;;;;;4993576;28;19964;-70
2021/05/05 02:17:37;;;;;;;;;;;7.10;59.10;;;;;;4992844;28;19996;-70
2021/05/05 02:20:04;;;;;;;;;;;7.00;60.60;;;;;;4993452;28;19996;-70
2021/05/05 02:22:30;;;;;;;;;;;6.90;61.50;;;;;;4991992;28;19910;-70
2021/05/05 02:24:55;;;;;;;;;;;6.80;62.20;;;;;;4993094;28;19955;-70
2021/05/05 02:27:21;;;;;;;;;;;6.80;63.70;;;;;;4993312;28;20275;-70
2021/05/05 02:29:47;;;;;;;;;;;6.80;63.20;;;;;;4993606;28;20341;-71
2021/05/05 02:32:14;;;;;;;;;;;6.70;64.50;;;;;;4992685;28;19914;-70
2021/05/05 02:34:40;;;;;;;;;;;6.70;64.50;;;;;;4992928;28;19910;-69
2021/05/05 02:37:08;;;;;;;;;;;6.60;66.40;;;;;;4993028;28;19913;-69
2021/05/05 02:39:33;;;;;;;;;;;6.60;67.40;;;;;;4993217;28;19910;-70
2021/05/05 02:41:59;;;;;;;;;;;6.40;67.90;;;;;;4992602;28;19984;-71
2021/05/05 02:44:24;;;;;;;;;;;6.20;71.40;;;;;;4992814;28;19906;-69
2021/05/05 02:46:50;;;;;;;;;;;6.30;72.80;;;;;;4992900;28;19913;-70
2021/05/05 02:49:15;;;;;;;;;;;6.30;72.80;;;;;;4993145;28;19941;-70
2021/05/05 02:51:41;;;;;;;;;;;6.30;71.60;;;;;;4991578;28;19910;-70
2021/05/05 02:54:06;;;;;;;;;;;6.40;72.80;;;;;;4992852;28;19996;-70
2021/05/05 02:56:32;;;;;;;;;;;6.60;69.30;;;;;;4992968;28;20470;-69
2021/05/05 02:58:57;;;;;;;;;;;6.60;67.80;;;;;;4992815;28;20363;-70
2021/05/05 03:01:23;;;;;;;;;;;6.70;66.60;;;;;;4992687;28;19909;-70
2021/05/05 03:03:48;;;;;;;;;;;6.60;65.90;;;;;;4992267;28;19933;-70
2021/05/05 03:06:14;;;;;;;;;;;6.60;66.10;;;;;;4992890;28;20286;-71
2021/05/05 03:08:40;;;;;;;;;;;6.60;66.80;;;;;;4992928;28;19912;-69
2021/05/05 03:11:05;;;;;;;;;;;6.60;66.30;;;;;;4992745;28;19914;-70
2021/05/05 03:13:31;;;;;;;;;;;6.60;66.90;;;;;;4992808;28;19906;-70
2021/05/05 03:15:56;;;;;;;;;;;6.50;68.30;;;;;;4991418;28;20363;-70
2021/05/05 03:18:22;;;;;;;;;;;6.60;67.50;;;;;;4992800;28;20636;-70
2021/05/05 03:20:48;;;;;;;;;;;6.70;66.80;;;;;;4992394;28;19943;-70
2021/05/05 03:23:13;;;;;;;;;;;6.80;65.00;;;;;;4992684;28;20000;-70
2021/05/05 03:25:40;;;;;;;;;;;6.80;64.80;;;;;;4991488;28;19942;-69
2021/05/05 03:28:06;;;;;;;;;;;6.90;64.40;;;;;;4993240;28;20001;-69
2021/05/05 03:30:31;;;;;;;;;;;7.00;63.60;;;;;;4996377;28;20388;-69
2021/05/05 03:32:57;;;;;;;;;;;7.00;62.20;;;;;;5011438;28;20317;-69
2021/05/05 03:35:22;;;;;;;;;;;6.90;63.10;;;;;;4996462;28;19905;-69
2021/05/05 03:37:48;;;;;;;;;;;6.80;63.40;;;;;;4996246;28;19941;-69
2021/05/05 03:40:13;;;;;;;;;;;6.80;63.80;;;;;;4996282;28;19910;-70
2021/05/05 03:42:39;;;;;;;;;;;6.70;66.30;;;;;;4996237;28;19910;-70
2021/05/05 03:45:05;;;;;;;;;;;6.70;66.90;;;;;;4996226;28;19910;-69
2021/05/05 03:47:31;;;;;;;;;;;6.80;65.40;;;;;;4996219;28;19909;-69
2021/05/05 03:49:57;;;;;;;;;;;6.90;64.60;;;;;;4995956;28;19968;-69
2021/05/05 03:52:23;;;;;;;;;;;7.00;63.60;;;;;;4996030;28;20354;-69
2021/05/05 03:54:48;;;;;;;;;;;7.10;62.40;;;;;;4995818;28;19912;-69
2021/05/05 03:57:14;;;;;;;;;;;7.10;60.80;;;;;;4995886;28;19910;-69
2021/05/05 03:59:39;;;;;;;;;;;7.10;60.30;;;;;;4994900;28;20393;-69
2021/05/05 04:02:05;;;;;;;;;;;7.20;59.20;;;;;;4995562;28;19941;-69
2021/05/05 04:04:30;;;;;;;;;;;7.20;59.80;;;;;;4995591;28;19913;-69
2021/05/05 04:06:56;;;;;;;;;;;7.30;58.60;;;;;;4995664;28;19913;-69
2021/05/05 04:09:22;;;;;;;;;;;7.30;59.30;;;;;;4995976;28;19945;-69
2021/05/05 04:11:48;;;;;;;;;;;7.30;58.00;;;;;;4995360;28;19910;-69
2021/05/05 04:14:13;;;;;;;;;;;7.40;58.00;;;;;;4995372;28;19960;-69
2021/05/05 04:16:39;;;;;;;;;;;7.40;58.50;;;;;;4995879;28;19909;-69
2021/05/05 04:19:04;;;;;;;;;;;7.30;60.00;;;;;;4995706;28;19956;-70
2021/05/05 04:21:30;;;;;;;;;;;7.30;59.30;;;;;;4995531;28;19909;-70
2021/05/05 04:23:56;;;;;;;;;;;7.40;59.20;;;;;;4995371;28;19913;-70
2021/05/05 04:26:21;;;;;;;;;;;7.40;57.60;;;;;;4995666;28;19959;-70
2021/05/05 04:28:47;;;;;;;;;;;7.50;57.60;;;;;;4995613;28;19909;-70
2021/05/05 04:31:13;;;;;;;;;;;7.50;57.90;;;;;;4995581;28;19905;-70
2021/05/05 04:33:39;;;;;;;;;;;7.50;57.40;;;;;;4995175;28;19906;-69
2021/05/05 04:36:05;;;;;;;;;;;7.50;57.10;;;;;;4994929;28;19917;-72
2021/05/05 04:38:30;;;;;;;;;;;7.50;57.70;;;;;;4995098;28;20417;-70
2021/05/05 04:40:56;;;;;;;;;;;7.50;57.10;;;;;;4994466;28;19910;-70
2021/05/05 04:43:21;;;;;;;;;;;7.50;57.80;;;;;;4995230;28;19906;-70
2021/05/05 04:45:47;;;;;;;;;;;7.40;57.90;;;;;;4995204;28;19996;-70
2021/05/05 04:48:13;;;;;;;;;;;7.40;57.70;;;;;;4995191;28;19905;-71
2021/05/05 04:50:38;;;;;;;;;;;7.50;58.30;;;;;;4995197;28;19906;-69
2021/05/05 04:53:04;;;;;;;;;;;7.50;58.00;;;;;;4994550;28;19917;-69
2021/05/05 04:55:29;;;;;;;;;;;7.50;58.20;;;;;;4994022;28;20310;-72
2021/05/05 04:57:55;;;;;;;;;;;7.60;58.10;;;;;;4995331;28;19910;-71
2021/05/05 05:00:20;;;;;;;;;;;7.60;56.50;;;;;;4994951;28;19905;-70
2021/05/05 05:02:46;;;;;;;;;;;7.60;56.40;;;;;;4994785;28;19909;-69
2021/05/05 05:05:11;;;;;;;;;;;7.70;56.90;;;;;;4994988;28;19988;-70
2021/05/05 05:07:37;;;;;;;;;;;7.60;56.80;;;;;;4994732;28;19932;-70
2021/05/05 05:10:03;;;;;;;;;;;7.60;58.20;;;;;;4995429;28;19970;-71
2021/05/05 05:12:29;;;;;;;;;;;7.50;62.50;;;;;;4997953;28;19916;-71
2021/05/05 05:14:54;;;;;;;;;;;7.40;64.00;;;;;;4999142;28;19915;-70
2021/05/05 05:17:20;;;;;;;;;;;7.40;66.90;;;;;;4997400;28;19910;-70
2021/05/05 05:19:46;;;;;;;;;;;7.40;68.60;;;;;;4999229;28;19906;-71
2021/05/05 05:22:12;;;;;;;;;;;7.40;72.30;;;;;;5001871;28;19916;-71
2021/05/05 05:24:37;;;;;;;;;;;7.30;72.00;;;;;;5000707;28;20374;-71
2021/05/05 05:27:03;;;;;;;;;;;7.40;69.10;;;;;;4996947;28;19909;-71
2021/05/05 05:29:28;;;;;;;;;;;7.30;72.30;;;;;;4995093;28;19916;-70
2021/05/05 05:31:54;;;;;;;;;;;7.30;71.80;;;;;;4994800;28;19905;-69
2021/05/05 05:34:19;;;;;;;;;;;7.30;67.90;;;;;;4994775;28;19910;-70
2021/05/05 05:36:45;;;;;;;;;;;7.40;69.50;;;;;;4994298;28;19920;-69
2021/05/05 05:39:10;;;;;;;;;;;7.40;65.40;;;;;;4994260;28;19917;-69
2021/05/05 05:41:36;;;;;;;;;;;7.60;63.10;;;;;;4995016;28;19906;-70
2021/05/05 05:44:02;;;;;;;;;;;7.60;63.90;;;;;;4994832;28;19913;-70
2021/05/05 05:46:27;;;;;;;;;;;7.70;63.60;;;;;;4997612;28;19905;-70
2021/05/05 05:48:53;;;;;;;;;;;7.80;64.10;;;;;;4994885;28;19910;-71
2021/05/05 05:51:18;;;;;;;;;;;7.70;64.80;;;;;;4994504;28;19906;-70
2021/05/05 05:53:43;;;;;;;;;;;7.80;63.00;;;;;;4993783;28;20275;-70
2021/05/05 05:56:09;;;;;;;;;;;7.80;60.10;;;;;;4993913;28;19910;-69
2021/05/05 05:58:35;;;;;;;;;;;8.00;59.90;;;;;;4993832;28;20334;-70
2021/05/05 06:01:00;;;;;;;;;;;8.10;57.10;;;;;;4994347;28;19917;-70
2021/05/05 06:03:26;;;;;;;;;;;8.20;56.30;;;;;;4993973;28;19910;-70
2021/05/05 06:05:51;;;;;;;;;;;8.20;54.60;;;;;;4993536;28;19906;-70
2021/05/05 06:08:17;;;;;;;;;;;8.30;57.10;;;;;;4993180;28;20430;-69
2021/05/05 06:10:42;;;;;;;;;;;8.40;55.80;;;;;;4990485;28;20337;-69
2021/05/05 06:13:08;;;;;;;;;;;8.40;52.50;;;;;;4988392;28;19906;-69
2021/05/05 06:15:33;;;;;;;;;;;8.40;54.30;;;;;;4993164;28;19906;-70
2021/05/05 06:17:59;;;;;;;;;;;8.20;54.60;;;;;;4992909;28;19977;-70
2021/05/05 06:20:24;;;;;;;;;;;8.00;59.70;;;;;;4992128;28;19909;-71
2021/05/05 06:22:50;;;;;;;;;;;7.80;65.90;;;;;;4993326;28;19976;-70
2021/05/05 06:25:15;;;;;;;;;;;7.70;68.60;;;;;;4993664;28;19906;-69
2021/05/05 06:27:41;;;;;;;;;;;7.40;70.40;;;;;;4993140;28;19910;-69
2021/05/05 06:30:07;;;;;;;;;;;7.20;67.90;;;;;;4993332;28;20020;-70
2021/05/05 06:32:33;;;;;;;;;;;7.00;71.30;;;;;;4993296;28;19906;-69
2021/05/05 06:34:58;;;;;;;;;;;7.00;72.50;;;;;;4992940;28;19906;-69
2021/05/05 06:37:24;;;;;;;;;;;7.10;72.80;;;;;;4991166;28;19926;-69
2021/05/05 06:39:50;;;;;;;;;;;7.30;69.80;;;;;;4993038;28;19905;-69
2021/05/05 06:42:15;;;;;;;;;;;7.50;70.80;;;;;;4993429;28;19937;-70
2021/05/05 06:44:41;;;;;;;;;;;7.70;68.80;;;;;;4992184;28;19912;-70
2021/05/05 06:47:06;;;;;;;;;;;7.70;66.90;;;;;;4992626;28;19969;-71
2021/05/05 06:49:34;;;;;;;;;;;7.80;61.80;;;;;;4993484;28;19905;-70
2021/05/05 06:52:00;;;;;;;;;;;7.80;59.10;;;;;;4993421;28;20363;-70
2021/05/05 06:54:25;;;;;;;;;;;7.80;55.70;;;;;;4992866;28;19906;-70
2021/05/05 06:56:51;;;;;;;;;;;7.90;55.20;;;;;;4992682;28;19913;-70
2021/05/05 06:59:17;;;;;;;;;;;7.80;55.30;;;;;;4993084;28;19910;-70
2021/05/05 07:01:42;;;;;;;;;;;7.70;53.30;;;;;;4993237;28;20004;-72
2021/05/05 07:04:09;;;;;;;;;;;7.50;53.70;;;;;;4997750;28;20000;-69
2021/05/05 07:06:35;;;;;;;;;;;7.50;54.50;;;;;;4998426;28;19983;-69
2021/05/05 07:09:00;;;;;;;;;;;7.50;56.90;;;;;;4998727;28;20367;-69
2021/05/05 07:11:27;;;;;;;;;;;7.50;56.70;;;;;;4999282;28;20267;-69
2021/05/05 07:13:53;;;;;;;;;;;7.50;58.00;;;;;;4999091;28;19916;-70
2021/05/05 07:16:20;;;;;;;;;;;7.60;58.80;;;;;;5004612;28;19993;-75
2021/05/05 07:18:46;;;;;;;;;;;7.50;59.80;;;;;;5017911;28;20007;-71
2021/05/05 07:21:11;;;;;;;;;;;7.60;60.10;;;;;;4998820;28;20007;-69
2021/05/05 07:23:37;;;;;;;;;;;7.70;61.50;;;;;;4988977;28;19999;-70
2021/05/05 07:26:02;;;;;;;;;;;7.80;59.00;;;;;;4998557;28;19918;-70
2021/05/05 07:28:28;;;;;;;;;;;7.90;57.20;;;;;;4997592;28;20389;-72
2021/05/05 07:30:53;;;;;;;;;;;7.80;58.90;;;;;;4998665;28;20309;-70
2021/05/05 07:33:19;;;;;;;;;;;7.80;59.80;;;;;;5000461;28;19917;-71
2021/05/05 07:35:50;;;;;;;;;;;7.70;62.60;;;;;;4999712;28;19952;-71
2021/05/05 07:48:28;;;;;;;;;;;7.50;59.90;;;;;;4998948;28;19978;-70
2021/05/05 07:50:54;;;;;;;;;;;7.40;64.40;;;;;;4998933;28;19917;-69
2021/05/05 07:53:20;;;;;;;;;;;7.40;69.00;;;;;;4998214;28;19910;-70
2021/05/05 07:55:45;;;;;;;;;;;7.30;66.50;;;;;;4999594;28;20451;-70
2021/05/05 07:58:11;;;;;;;;;;;7.10;65.00;;;;;;4999003;28;19933;-70
2021/05/05 08:00:38;;;;;;;;;;;7.10;61.80;;;;;;4997900;28;19968;-70
2021/05/05 08:03:03;;;;;;;;;;;7.10;62.40;;;;;;4996950;28;19939;-71
2021/05/05 08:05:29;;;;;;;;;;;7.20;63.70;;;;;;4999002;28;19906;-70
2021/05/05 08:07:54;;;;;;;;;;;7.30;64.10;;;;;;4998894;28;20000;-71
2021/05/05 08:10:20;;;;;;;;;;;7.20;61.30;;;;;;4998904;28;19906;-70
2021/05/05 08:12:46;;;;;;;;;;;7.20;63.60;;;;;;4998434;28;19916;-70
2021/05/05 08:15:12;;;;;;;;;;;7.10;65.10;;;;;;4994804;28;20298;-71
2021/05/05 08:17:38;;;;;;;;;;;7.00;70.10;;;;;;4996188;28;19920;-70
2021/05/05 08:20:04;;;;;;;;;;;7.20;67.10;;;;;;4995722;28;20004;-71
2021/05/05 08:22:30;;;;;;;;;;;7.30;61.90;;;;;;4994099;28;19916;-71
2021/05/05 08:24:55;;;;;;;;;;;7.40;64.00;;;;;;4994506;28;19906;-70
2021/05/05 08:27:22;;;;;;;;;;;7.50;64.90;;;;;;4996346;28;19910;-71
2021/05/05 08:29:48;;;;;;;;;;;7.60;62.40;;;;;;4998172;28;19996;-71
2021/05/05 08:32:14;;;;;;;;;;;7.80;59.30;;;;;;4997232;28;19956;-71
2021/05/05 08:34:39;;;;;;;;;;;7.80;54.40;;;;;;4995707;28;19952;-71
2021/05/05 08:37:05;;;;;;;;;;;7.90;58.30;;;;;;4995008;28;20409;-71
2021/05/05 08:39:30;;;;;;;;;;;8.00;59.70;;;;;;4995810;28;19953;-71
2021/05/05 08:41:57;;;;;;;;;;;8.10;54.90;;;;;;4994914;28;19917;-71
2021/05/05 08:44:23;;;;;;;;;;;8.30;55.90;;;;;;4995525;28;20311;-70
2021/05/05 08:46:49;;;;;;;;;;;8.50;53.40;;;;;;4993902;28;19918;-70
2021/05/05 08:49:16;;;;;;;;;;;8.70;50.30;;;;;;4995391;28;20294;-71
2021/05/05 08:51:41;;;;;;;;;;;9.20;43.40;;;;;;4995153;28;20433;-70
2021/05/05 08:54:07;;;;;;;;;;;9.60;41.80;;;;;;4995080;28;19906;-70
2021/05/05 08:56:35;;;;;;;;;;;10.00;41.10;;;;;;4995441;28;20012;-70
2021/05/05 08:59:05;;;;;;;;;;;10.20;39.10;;;;;;4994349;28;19949;-70
2021/05/05 09:01:30;;;;;;;;;;;10.30;38.20;;;;;;4987577;28;19962;-72
2021/05/05 09:03:56;;;;;;;;;;;10.10;38.50;;;;;;4993227;28;19918;-71
2021/05/05 09:06:40;;;;;;;;;;;10.10;37.10;;;;;;4994956;28;19949;-71
2021/05/05 09:09:06;;;;;;;;;;;10.20;38.20;;;;;;4993686;28;19910;-71
2021/05/05 09:11:42;;;;;;;;;;;10.40;34.40;;;;;;4986478;28;20322;-70
2021/05/05 09:14:08;;;;;;;;;;;10.60;33.20;;;;;;4994559;28;19921;-71
2021/05/05 09:16:33;;;;;;;;;;;10.70;34.80;;;;;;4994834;28;20325;-71
2021/05/05 09:19:00;;;;;;;;;;;10.50;29.20;;;;;;4994202;28;19996;-70
2021/05/05 09:21:26;;;;;;;;;;;10.40;32.20;;;;;;4994150;28;19910;-70
2021/05/05 09:23:51;;;;;;;;;;;10.50;32.40;;;;;;4994592;28;19960;-70
2021/05/05 09:26:33;;;;;;;;;;;10.40;30.30;;;;;;4994445;28;19906;-71
2021/05/05 09:28:58;;;;;;;;;;;10.50;31.00;;;;;;4994278;28;20345;-71
2021/05/05 09:31:31;;;;;;;;;;;10.50;30.90;;;;;;4994239;28;19910;-70
2021/05/05 09:33:57;;;;;;;;;;;10.50;30.20;;;;;;4994216;28;19906;-71
2021/05/05 09:36:22;;;;;;;;;;;10.60;28.70;;;;;;4994203;28;19914;-71
2021/05/05 09:38:50;;;;;;;;;;;10.60;28.20;;;;;;4994025;28;19914;-71
2021/05/05 09:41:19;;;;;;;;;;;10.50;27.20;;;;;;4993634;28;19916;-71
2021/05/05 09:43:44;;;;;;;;;;;10.10;29.00;;;;;;4993530;28;19921;-70
2021/05/05 09:46:29;;;;;;;;;;;9.90;31.20;;;;;;4994268;28;20390;-71
2021/05/05 09:49:15;;;;;;;;;;;10.10;31.20;;;;;;4994099;28;20290;-70
2021/05/05 09:51:44;;;;;;;;;;;10.50;29.10;;;;;;4993789;28;19910;-71
2021/05/05 09:54:09;;;;;;;;;;;10.70;28.20;;;;;;4993725;28;19980;-70
2021/05/05 09:56:35;;;;;;;;;;;10.90;26.40;;;;;;4993638;28;20363;-71
2021/05/05 09:59:00;;;;;;;;;;;10.90;25.50;;;;;;4993782;28;19909;-71
2021/05/05 10:01:29;;;;;;;;;;;11.00;25.10;;;;;;4991986;28;20384;-71
2021/05/05 10:03:55;;;;;;;;;;;10.80;26.60;;;;;;4993784;28;19909;-72
2021/05/05 10:06:21;;;;;;;;;;;10.60;29.00;;;;;;4993725;28;19905;-70
2021/05/05 10:08:50;;;;;;;;;;;10.60;29.80;;;;;;4993643;28;20374;-71
2021/05/05 10:11:27;;;;;;;;;;;10.50;30.50;;;;;;4993288;28;20463;-71
2021/05/05 10:13:54;;;;;;;;;;;10.20;30.30;;;;;;4974008;28;20295;-70
2021/05/05 10:16:20;;;;;;;;;;;10.00;31.50;;;;;;4975619;28;20346;-71
2021/05/05 10:18:47;;;;;;;;;;;9.90;32.40;;;;;;4993637;28;19906;-71
2021/05/05 10:21:14;;;;;;;;;;;9.80;34.30;;;;;;4993350;28;19913;-71
2021/05/05 10:23:43;;;;;;;;;;;9.00;38.70;;;;;;4994139;28;19965;-70
2021/05/05 10:26:12;;;;;;;4.80;1.70;;;7.50;54.20;;;;;;4992421;28;20407;-72
2021/05/05 10:28:41;;;;;;;2.08;1.80;;;7.00;62.90;;;;;;4991596;28;20398;-70
2021/05/05 10:31:15;;;;;;;3.13;2.10;;;7.10;65.90;;;;;;4991301;28;20414;-69
2021/05/05 10:33:44;;;;;;;6.35;4.13;;;7.50;62.30;;;;;;4991701;28;20383;-68
2021/05/05 10:36:29;;;;;;;6.07;3.10;;;8.10;66.20;;;;;;4992956;28;20739;-68
2021/05/05 10:38:56;;;;;;;8.32;3.50;;;8.80;52.40;;;;;;4995575;28;20394;-69
2021/05/05 10:41:22;;;;;;;6.97;3.10;;;9.20;49.30;;;;;;4994078;28;20409;-69
2021/05/05 10:43:49;;;;;;;4.60;3.05;;;9.80;41.70;;;;;;4991932;28;20391;-70
2021/05/05 10:46:34;;;;;;;5.93;3.20;;;10.40;37.20;;;;;;4992283;28;20390;-70
2021/05/05 10:49:12;;;;;;;6.88;3.08;;;10.90;33.50;;;;;;4991451;28;20402;-70
2021/05/05 10:51:49;;;;;;;8.63;3.53;;;11.10;30.20;;;;;;4991514;28;20497;-69
2021/05/05 10:54:17;;;;;;;13.60;4.03;;;11.50;29.90;;;;;;4990441;28;20425;-70
2021/05/05 10:57:04;;;;;;;9.25;4.00;;;11.80;25.30;;;;;;4991969;28;20429;-69
2021/05/05 10:59:29;;;;;;;14.32;4.60;;;11.90;24.30;;;;;;4991046;28;20437;-69
2021/05/05 11:01:55;;;;;;;11.70;4.40;;;12.10;23.40;;;;;;4991402;28;20432;-69
2021/05/05 11:04:20;;;;;;;9.87;4.57;;;11.90;23.30;;;;;;4991602;28;20485;-68
2021/05/05 11:06:54;;;;;;;9.60;4.37;;;11.70;22.60;;;;;;4990197;28;20390;-68
2021/05/05 11:09:21;;;;;;;13.73;3.83;;;11.70;22.50;;;;;;4991928;28;20399;-69
2021/05/05 11:11:52;;;;;;;10.18;3.95;;;11.80;22.60;;;;;;4985376;28;20410;-69
2021/05/05 11:14:23;;;;;;;11.10;4.05;;;11.80;21.40;;;;;;4997786;28;20489;-69
2021/05/05 11:16:57;;;;;;;7.32;3.20;;;12.00;20.80;;;;;;4995137;28;20406;-71
2021/05/05 11:19:38;;;;;;;10.23;3.70;;;11.90;19.70;;;;;;4997089;28;20465;-71
2021/05/05 11:22:19;;;;;;;8.13;3.40;;;12.20;17.80;;;;;;4995986;28;20404;-70
2021/05/05 11:24:46;;;;;;;7.75;3.10;;;12.60;17.60;;;;;;4993342;28;20763;-71
2021/05/05 11:27:13;;;;;;;10.27;4.07;;;12.70;16.50;;;;;;4995294;28;20501;-71
2021/05/05 11:29:47;;;;;;;7.78;3.33;;;12.80;17.00;;;;;;4995365;28;20456;-71
2021/05/05 11:32:26;;;;;;;13.30;3.70;;;12.80;16.30;;;;;;4995454;28;20433;-70
2021/05/05 11:34:52;;;;;;;9.63;3.85;;;12.50;16.90;;;;;;4994952;28;20937;-72
2021/05/05 11:37:19;;;;;;;8.90;3.35;;;12.10;18.50;;;;;;4986297;28;20413;-71
2021/05/05 11:39:50;;;;;;;9.18;2.80;;;11.90;19.40;;;;;;4995326;28;20413;-71
2021/05/05 11:42:28;;;;;;;10.30;3.00;;;11.30;20.30;;;;;;4993764;28;20390;-70
2021/05/05 11:44:59;;;;;;;4.40;1.80;;;10.80;22.90;;;;;;4992815;28;20979;-70
2021/05/05 11:47:32;;;;;;;4.50;1.50;;;9.00;40.40;;;;;;4992474;28;20901;-70
2021/05/05 11:50:00;;;;;;;2.45;1.55;;;6.50;99.90;;;;;;4992774;28;20193;-70
2021/05/05 11:52:28;;;;;;;3.45;1.17;;;6.40;99.90;;;;;;4991608;28;20185;-69
2021/05/05 11:54:58;;;;;;;5.72;2.25;;;6.70;99.90;;;;;;4997205;28;20184;-69
2021/05/05 11:57:27;;;;;;;;;;;7.20;99.90;;;;;;4997830;28;20511;-69
2021/05/05 11:59:53;;;;;;;;;;;7.40;99.90;;;;;;4997581;28;19917;-70
2021/05/05 12:02:19;;;;;;;;;;;7.70;95.50;;;;;;4999314;28;20051;-72
2021/05/05 12:04:45;;;;;;;;;;;8.30;99.90;;;;;;4999004;28;20441;-70
2021/05/05 12:07:11;;;;;;;;;;;8.50;88.20;;;;;;4998130;28;19910;-70
2021/05/05 12:09:38;;;;;;;;;;;8.90;96.50;;;;;;4996792;28;19964;-70
2021/05/05 12:12:11;;;;;;;;;;;9.30;92.80;;;;;;4997190;28;19956;-70
2021/05/05 12:14:37;;;;;;;;;;;9.70;85.60;;;;;;4997457;28;19913;-69
2021/05/05 12:17:15;;;;;;;;;;;9.90;58.80;;;;;;4996747;28;19993;-69
2021/05/05 12:19:50;;;;;;;;;;;10.20;51.90;;;;;;4996464;28;19933;-69
2021/05/05 12:22:15;;;;;;;;;;;9.70;47.30;;;;;;4996898;28;19949;-70
2021/05/05 12:24:41;;;;;;;;;;;9.20;59.70;;;;;;4996388;28;19906;-70
2021/05/05 12:27:07;;;;;;;;;;;9.10;58.60;;;;;;4996528;28;20441;-70
2021/05/05 12:29:34;;;;;;;2.75;1.38;;;9.10;57.00;;;;;;4996232;28;20570;-70
2021/05/05 12:31:59;;;;;;;1.03;0.80;;;9.10;55.10;;;;;;4995274;28;20290;-70
2021/05/05 12:34:25;;;;;;;;;;;9.10;47.50;;;;;;4996023;28;20266;-70
2021/05/05 12:36:53;;;;;;;;;;;9.00;44.40;;;;;;4996501;28;20267;-71
2021/05/05 12:39:19;;;;;;;;;;;9.00;46.70;;;;;;4996172;28;20269;-69
2021/05/05 12:41:49;;;;;;;;;;;9.40;44.40;;;;;;4995581;28;19940;-69
2021/05/05 12:44:15;;;;;;;;;;;9.80;41.60;;;;;;4994261;28;19906;-70
2021/05/05 12:49:55;;;;;;;;;;;10.10;38.30;;;;;;4954601;29;19906;-71
2021/05/05 12:52:25;;;;;;;;;;;10.20;37.70;;;;;;4954247;29;19907;-69
2021/05/05 12:54:51;;;;;;;;;;;10.50;35.60;;;;;;4976730;28;19996;-71
2021/05/05 12:57:17;;;;;;;;;;;10.60;33.10;;;;;;4995200;28;20004;-69
2021/05/05 12:59:42;;;;;;;;;;;10.70;32.90;;;;;;4995393;28;19921;-70
2021/05/05 13:02:09;;;;;;;;;;;10.90;33.50;;;;;;4994128;28;19909;-69
2021/05/05 13:06:04;;;;;;;3.97;1.92;;;11.10;29.80;;;;;;5017155;28;20402;-70
2021/05/05 13:08:50;;;;;;;6.10;2.13;;;11.10;30.40;;;;;;4999502;28;20403;-70
2021/05/05 13:11:29;;;;;;;4.10;2.20;;;11.40;28.10;;;;;;5038346;28;20394;-71
2021/05/05 13:14:22;;;;;;;3.90;1.50;;;11.10;29.50;;;;;;5008287;28;20390;-70
2021/05/05 13:30:43;;;;;;;3.00;2.13;;;7.80;71.90;;;;;;5049579;28;20229;-69
2021/05/05 13:33:10;;;;;;;4.38;2.40;;;8.10;69.50;;;;;;5049525;28;20179;-69
2021/05/05 13:35:56;;;;;;;6.00;3.15;;;8.50;62.90;;;;;;5049845;28;20640;-68
2021/05/05 13:38:34;;;;;;;4.57;2.72;;;9.00;56.70;;;;;;5045487;28;20192;-69
2021/05/05 13:41:04;;;;;;;5.30;3.20;;;9.10;53.90;;;;;;5029608;28;20179;-69
2021/05/05 13:43:39;;;;;;;2.70;2.00;;;9.20;52.00;;;;;;5041203;28;20274;-71
2021/05/05 13:51:19;;;;;;;6.53;2.20;;;11.90;34.50;;;;;;5028854;28;20447;-71
2021/05/05 13:53:48;;;;;;;8.73;2.10;;;12.90;32.60;;;;;;5028271;28;20414;-72
2021/05/05 13:56:15;;;;;;;3.47;2.23;;;13.40;22.70;;;;;;5028500;28;20432;-71
2021/05/05 13:58:41;;;;;;;4.63;2.63;;;13.10;25.10;;;;;;5028719;28;20452;-73
2021/05/05 14:01:07;;;;;;;2.20;2.00;;;13.20;23.50;;;;;;5029154;28;20791;-73
2021/05/05 14:03:32;;;;;;;4.00;1.87;;;13.30;20.80;;;;;;5028761;28;20415;-73
2021/05/05 14:05:59;;;;;;;4.70;2.67;;;12.90;22.10;;;;;;5028735;28;20851;-71
2021/05/05 14:08:25;;;;;;;4.80;2.03;;;13.20;19.60;;;;;;5028424;28;20568;-72
2021/05/05 14:10:52;;;;;;;9.03;3.00;;;13.10;20.00;;;;;;5028375;28;20410;-71
2021/05/05 14:13:19;;;;;;;3.77;2.00;;;12.60;21.60;;;;;;5030497;28;20492;-74
2021/05/05 14:15:45;;;;;;;3.10;1.90;;;12.50;22.90;;;;;;5032386;28;20507;-71
2021/05/05 14:18:11;;;;;;;2.63;2.43;;;12.60;20.40;;;;;;5034833;28;20429;-72
2021/05/05 14:20:37;;;;;;;2.90;2.70;;;13.50;19.30;;;;;;5036861;28;20471;-74
2021/05/05 14:23:04;;;;;;;5.20;2.07;;;14.60;15.90;;;;;;5036075;28;20168;-74
2021/05/05 14:25:31;;;;;;;6.63;2.22;;;14.00;14.00;;;;;;5026586;28;20409;-72
2021/05/05 14:27:59;;;;;;;2.83;2.40;;;13.90;16.60;;;;;;5015066;28;20842;-73
2021/05/05 14:30:25;;;;;;;7.40;2.50;;;14.50;15.60;;;;;;5014450;28;20393;-73
2021/05/05 14:32:51;;;;;;;5.47;1.83;;;14.80;13.80;;;;;;5015370;28;20867;-72
2021/05/05 14:35:20;;;;;;;3.67;1.58;;;13.70;12.80;;;;;;5019289;28;20406;-73
2021/05/05 14:37:47;;;;;;;2.30;1.58;;;13.30;13.00;;;;;;5034419;28;20482;-72
2021/05/05 14:40:15;;;;;;;1.90;1.50;;;13.60;12.80;;;;;;5035185;28;20394;-72